Rechercher aéroport 
image banner adimage banner adimage banner ad
image banner ad

4CL9 - Arrowhead Rgnl Medical Center

Situé à Colton, United States

ICAO - 4CL9, IATA -

Données fournies par Airmate  

Information générale

Coordonnées: N34°4'29" W117°20'58"
Élévation : 1076 feet MSL.
Variation magnétique : 14° East
Voir autres Aéroports à California

Données opérationnelles

Special qualification required
Heure actuelle UTC:
Heure actuelle locale:
Météo à : KSBD - San Bernardino Intl ( 11 km )
METAR: KSBD 292255Z 24011G15KT 7SM FEW100 39/08 A2985
TAF: KSBD 291733Z 2918/3018 VRB05KT P6SM FEW120 FM292100 26011KT P6SM FEW150 FM300400 VRB05KT P6SM SCT200
Voir NOTAMs / SUP AIP / TFR affectant cet aéroport [VIEW]
Fréquences de communication: [VIEW]

Pistes:

Coordonnées de l'aéroport

Adresse: Colton United States

Vue satellite de 4CL9